Time,TemperatureF,DewpointF,PressureIn,WindDirection,WindDirectionDegrees,WindSpeedMPH,WindSpeedGustMPH,Humidity,HourlyPrecipIn,Conditions,Clouds,dailyrainin,SolarRadiationWatts/m^2,SoftwareType,DateUTC
2013-03-24 00:03:00,44.0,42.0,-100.00,West,264,3.0,7.0,94,0.00,,,0.09,0.000000,,2013-03-24 04:03:00,
2013-03-24 00:33:00,45.0,43.0,-100.00,East,91,1.0,4.0,94,0.00,,,0.09,0.000000,,2013-03-24 04:33:00,
2013-03-24 00:43:00,45.0,43.0,-100.00,East,91,1.0,4.0,94,0.00,,,0.09,0.000000,,2013-03-24 04:43:00,
2013-03-24 00:53:00,45.0,43.0,-100.00,East,91,1.0,4.0,94,0.00,,,0.09,0.000000,,2013-03-24 04:53:00,
2013-03-24 01:03:00,45.0,43.0,-100.00,East,91,1.0,4.0,94,0.00,,,0.09,0.000000,,2013-03-24 05:03:00,
2013-03-24 01:32:00,46.0,44.0,-100.00,SSE,148,0.0,5.0,93,0.00,,,0.09,0.000000,,2013-03-24 05:32:00,
2013-03-24 01:43:00,46.0,44.0,-100.00,SSE,148,0.0,5.0,93,0.00,,,0.09,0.000000,,2013-03-24 05:43:00,
2013-03-24 01:52:00,46.0,44.0,-100.00,SSE,148,0.0,5.0,93,0.00,,,0.09,0.000000,,2013-03-24 05:52:00,
2013-03-24 02:02:00,46.0,44.0,-100.00,SSE,148,0.0,5.0,93,0.00,,,0.09,0.000000,,2013-03-24 06:02:00,
2013-03-24 02:32:00,46.0,45.0,-100.00,SE,129,2.0,6.0,97,0.20,,,0.29,0.000000,,2013-03-24 06:32:00,
2013-03-24 02:42:00,46.0,45.0,-100.00,SE,129,2.0,6.0,97,0.20,,,0.29,0.000000,,2013-03-24 06:42:00,
2013-03-24 02:52:00,46.0,45.0,-100.00,SE,129,2.0,6.0,97,0.20,,,0.29,0.000000,,2013-03-24 06:52:00,
2013-03-24 03:02:00,46.0,45.0,-100.00,SE,129,2.0,6.0,97,0.20,,,0.29,0.000000,,2013-03-24 07:02:00,
2013-03-24 03:32:00,46.0,45.0,-100.00,South,181,0.0,8.0,97,0.09,,,0.38,0.000000,,2013-03-24 07:32:00,
2013-03-24 03:42:00,46.0,45.0,-100.00,South,181,0.0,8.0,97,0.09,,,0.38,0.000000,,2013-03-24 07:42:00,
2013-03-24 03:52:00,46.0,45.0,-100.00,South,181,0.0,8.0,97,0.09,,,0.38,0.000000,,2013-03-24 07:52:00,
2013-03-24 04:03:00,46.0,45.0,-100.00,South,181,0.0,8.0,97,0.09,,,0.38,0.000000,,2013-03-24 08:03:00,
2013-03-24 04:32:00,46.0,45.0,-100.00,SSE,161,3.0,6.0,98,0.05,,,0.43,0.000000,,2013-03-24 08:32:00,
2013-03-24 04:42:00,46.0,45.0,-100.00,SSE,161,3.0,6.0,98,0.05,,,0.43,0.000000,,2013-03-24 08:42:00,
2013-03-24 04:52:00,46.0,45.0,-100.00,SSE,161,3.0,6.0,98,0.05,,,0.43,0.000000,,2013-03-24 08:52:00,
2013-03-24 05:02:00,46.0,45.0,-100.00,SSE,161,3.0,6.0,98,0.05,,,0.43,0.000000,,2013-03-24 09:02:00,
2013-03-24 05:33:00,46.0,45.0,-100.00,West,266,3.0,7.0,97,0.12,,,0.55,0.000000,,2013-03-24 09:33:00,
2013-03-24 05:43:00,46.0,45.0,-100.00,West,266,3.0,7.0,97,0.12,,,0.55,0.000000,,2013-03-24 09:43:00,
2013-03-24 05:53:00,46.0,45.0,-100.00,West,266,3.0,7.0,97,0.12,,,0.55,0.000000,,2013-03-24 09:53:00,
2013-03-24 06:03:00,46.0,45.0,-100.00,West,266,3.0,7.0,97,0.12,,,0.55,0.000000,,2013-03-24 10:03:00,
2013-03-24 06:33:00,45.0,44.0,-100.00,North,11,1.0,8.0,97,0.11,,,0.64,0.000000,,2013-03-24 10:33:00,
2013-03-24 06:42:00,45.0,44.0,-100.00,North,11,1.0,8.0,97,0.11,,,0.64,0.000000,,2013-03-24 10:42:00,
2013-03-24 06:53:00,45.0,44.0,-100.00,North,11,1.0,8.0,97,0.11,,,0.64,0.000000,,2013-03-24 10:53:00,
2013-03-24 07:03:00,45.0,44.0,-100.00,North,11,1.0,8.0,97,0.11,,,0.64,0.000000,,2013-03-24 11:03:00,
2013-03-24 07:33:00,45.0,44.0,-100.00,South,173,2.0,7.0,98,0.31,,,0.88,0.000000,,2013-03-24 11:33:00,
2013-03-24 07:42:00,45.0,44.0,-100.00,South,173,2.0,7.0,98,0.31,,,0.88,0.000000,,2013-03-24 11:42:00,
2013-03-24 07:52:00,45.0,44.0,-100.00,South,173,2.0,7.0,98,0.31,,,0.88,0.000000,,2013-03-24 11:52:00,
2013-03-24 08:03:00,45.0,44.0,-100.00,South,173,2.0,7.0,98,0.31,,,0.88,0.000000,,2013-03-24 12:03:00,
2013-03-24 08:32:00,45.0,44.0,-100.00,NW,314,1.0,7.0,98,0.12,,,-99.99,1.000000,,2013-03-24 12:32:00,
2013-03-24 08:42:00,45.0,44.0,-100.00,NW,314,1.0,7.0,98,0.12,,,-99.99,1.000000,,2013-03-24 12:42:00,
2013-03-24 08:52:00,45.0,44.0,-100.00,NW,314,1.0,7.0,98,0.12,,,-99.99,1.000000,,2013-03-24 12:52:00,
2013-03-24 09:02:00,45.0,44.0,-100.00,NW,314,1.0,7.0,98,0.12,,,-99.99,1.000000,,2013-03-24 13:02:00,
2013-03-24 09:33:00,46.0,45.0,-100.00,SW,216,0.0,0.0,98,0.04,,,1.04,34.000000,,2013-03-24 13:33:00,
2013-03-24 09:43:00,46.0,45.0,-100.00,SW,216,0.0,0.0,98,0.04,,,1.04,34.000000,,2013-03-24 13:43:00,
2013-03-24 09:52:00,46.0,45.0,-100.00,SW,216,0.0,0.0,98,0.04,,,1.04,34.000000,,2013-03-24 13:52:00,
2013-03-24 10:02:00,46.0,45.0,-100.00,SW,216,0.0,0.0,98,0.04,,,1.04,34.000000,,2013-03-24 14:02:00,
2013-03-24 10:33:00,49.0,48.0,-100.00,ESE,120,0.0,0.0,98,0.02,,,1.06,119.000000,,2013-03-24 14:33:00,
2013-03-24 10:43:00,49.0,48.0,-100.00,ESE,120,0.0,0.0,98,0.02,,,1.06,119.000000,,2013-03-24 14:43:00,
2013-03-24 10:53:00,49.0,48.0,-100.00,ESE,120,0.0,0.0,98,0.02,,,1.06,119.000000,,2013-03-24 14:53:00,
2013-03-24 11:02:00,49.0,48.0,-100.00,ESE,120,0.0,0.0,98,0.02,,,1.06,119.000000,,2013-03-24 15:02:00,
2013-03-24 11:33:00,50.0,49.0,-100.00,SSE,154,0.0,3.0,97,0.00,,,1.06,173.000000,,2013-03-24 15:33:00,
2013-03-24 11:43:00,50.0,49.0,-100.00,SSE,154,0.0,3.0,97,0.00,,,1.06,173.000000,,2013-03-24 15:43:00,
2013-03-24 11:53:00,50.0,49.0,-100.00,SSE,154,0.0,3.0,97,0.00,,,1.06,173.000000,,2013-03-24 15:53:00,
2013-03-24 12:03:00,50.0,49.0,-100.00,SSE,154,0.0,3.0,97,0.00,,,1.06,173.000000,,2013-03-24 16:03:00,
2013-03-24 12:33:00,54.0,52.0,-100.00,NE,36,2.0,3.0,93,0.01,,,1.07,365.000000,,2013-03-24 16:33:00,
2013-03-24 12:43:00,54.0,52.0,-100.00,NE,36,2.0,3.0,93,0.01,,,1.07,365.000000,,2013-03-24 16:43:00,
2013-03-24 12:53:00,54.0,52.0,-100.00,NE,36,2.0,3.0,93,0.01,,,1.07,365.000000,,2013-03-24 16:53:00,
2013-03-24 13:03:00,54.0,52.0,-100.00,NE,36,2.0,3.0,93,0.01,,,1.07,365.000000,,2013-03-24 17:03:00,
2013-03-24 13:33:00,57.0,50.0,-100.00,ENE,62,3.0,6.0,78,0.00,,,1.07,501.000000,,2013-03-24 17:33:00,
2013-03-24 13:43:00,57.0,50.0,-100.00,ENE,62,3.0,6.0,78,0.00,,,1.07,501.000000,,2013-03-24 17:43:00,
2013-03-24 13:53:00,57.0,50.0,-100.00,ENE,62,3.0,6.0,78,0.00,,,1.07,501.000000,,2013-03-24 17:53:00,
2013-03-24 14:03:00,57.0,50.0,-100.00,ENE,62,3.0,6.0,78,0.00,,,1.07,501.000000,,2013-03-24 18:03:00,
2013-03-24 14:33:00,61.0,51.0,-100.00,WNW,301,3.0,6.0,69,0.00,,,1.07,575.000000,,2013-03-24 18:33:00,
2013-03-24 14:43:00,61.0,51.0,-100.00,WNW,301,3.0,6.0,69,0.00,,,1.07,575.000000,,2013-03-24 18:43:00,
2013-03-24 14:52:00,61.0,51.0,-100.00,WNW,301,3.0,6.0,69,0.00,,,1.07,575.000000,,2013-03-24 18:52:00,
2013-03-24 15:03:00,61.0,51.0,-100.00,WNW,301,3.0,6.0,69,0.00,,,1.07,575.000000,,2013-03-24 19:03:00,
2013-03-24 15:32:00,60.0,50.0,-100.00,SE,144,3.0,5.0,69,0.00,,,1.07,287.000000,,2013-03-24 19:32:00,
2013-03-24 15:43:00,60.0,50.0,-100.00,SE,144,3.0,5.0,69,0.00,,,1.07,287.000000,,2013-03-24 19:43:00,
2013-03-24 15:53:00,60.0,50.0,-100.00,SE,144,3.0,5.0,69,0.00,,,1.07,287.000000,,2013-03-24 19:53:00,
2013-03-24 16:03:00,60.0,50.0,-100.00,SE,144,3.0,5.0,69,0.00,,,1.07,287.000000,,2013-03-24 20:03:00,
2013-03-24 16:33:00,58.0,45.0,-100.00,WSW,249,10.0,17.0,61,0.00,,,1.07,398.000000,,2013-03-24 20:33:00,
2013-03-24 16:43:00,58.0,45.0,-100.00,WSW,249,10.0,17.0,61,0.00,,,1.07,398.000000,,2013-03-24 20:43:00,
2013-03-24 16:53:00,58.0,45.0,-100.00,WSW,249,10.0,17.0,61,0.00,,,1.07,398.000000,,2013-03-24 20:53:00,
2013-03-24 17:03:00,58.0,45.0,-100.00,WSW,249,10.0,17.0,61,0.00,,,1.07,398.000000,,2013-03-24 21:03:00,
2013-03-24 17:33:00,54.0,45.0,-100.00,SSW,212,6.0,17.0,71,0.00,,,1.07,220.000000,,2013-03-24 21:33:00,
2013-03-24 17:43:00,54.0,45.0,-100.00,SSW,212,6.0,17.0,71,0.00,,,1.07,220.000000,,2013-03-24 21:43:00,
2013-03-24 17:53:00,54.0,45.0,-100.00,SSW,212,6.0,17.0,71,0.00,,,1.07,220.000000,,2013-03-24 21:53:00,
2013-03-24 18:03:00,54.0,45.0,-100.00,SSW,212,6.0,17.0,71,0.00,,,1.07,220.000000,,2013-03-24 22:03:00,
2013-03-24 18:33:00,53.0,45.0,-100.00,SW,221,4.0,18.0,75,0.00,,,1.07,114.000000,,2013-03-24 22:33:00,
2013-03-24 18:43:00,53.0,45.0,-100.00,SW,221,4.0,18.0,75,0.00,,,1.07,114.000000,,2013-03-24 22:43:00,
2013-03-24 18:53:00,53.0,45.0,-100.00,SW,221,4.0,18.0,75,0.00,,,1.07,114.000000,,2013-03-24 22:53:00,
2013-03-24 19:03:00,53.0,45.0,-100.00,SW,221,4.0,18.0,75,0.00,,,1.07,114.000000,,2013-03-24 23:03:00,
2013-03-24 19:32:00,49.0,44.0,-100.00,NW,321,2.0,12.0,82,0.08,,,1.15,31.000000,,2013-03-24 23:32:00,
2013-03-24 19:43:00,49.0,44.0,-100.00,NW,321,2.0,12.0,82,0.08,,,1.15,31.000000,,2013-03-24 23:43:00,
2013-03-24 19:53:00,49.0,44.0,-100.00,NW,321,2.0,12.0,82,0.08,,,1.15,31.000000,,2013-03-24 23:53:00,
2013-03-24 20:02:00,49.0,44.0,-100.00,NW,321,2.0,12.0,82,0.08,,,1.15,31.000000,,2013-03-25 00:02:00,
2013-03-24 20:33:00,48.0,46.0,-100.00,WSW,251,2.0,6.0,94,0.12,,,1.27,10.000000,,2013-03-25 00:33:00,
2013-03-24 20:43:00,48.0,46.0,-100.00,WSW,251,2.0,6.0,94,0.12,,,1.27,10.000000,,2013-03-25 00:43:00,
2013-03-24 20:53:00,48.0,46.0,-100.00,WSW,251,2.0,6.0,94,0.12,,,1.27,10.000000,,2013-03-25 00:53:00,
2013-03-24 21:02:00,48.0,46.0,-100.00,WSW,251,2.0,6.0,94,0.12,,,1.27,10.000000,,2013-03-25 01:02:00,
2013-03-24 21:32:00,47.0,46.0,-100.00,West,266,7.0,14.0,95,0.02,,,1.29,0.000000,,2013-03-25 01:32:00,
2013-03-24 21:42:00,47.0,46.0,-100.00,West,266,7.0,14.0,95,0.02,,,1.29,0.000000,,2013-03-25 01:42:00,
2013-03-24 21:53:00,47.0,46.0,-100.00,West,266,7.0,14.0,95,0.02,,,1.29,0.000000,,2013-03-25 01:53:00,
2013-03-24 22:02:00,47.0,46.0,-100.00,West,266,7.0,14.0,95,0.02,,,1.29,0.000000,,2013-03-25 02:02:00,
2013-03-24 22:33:00,45.0,37.0,-100.00,West,261,4.0,20.0,72,0.00,,,1.29,0.000000,,2013-03-25 02:33:00,
2013-03-24 22:43:00,45.0,37.0,-100.00,West,261,4.0,20.0,72,0.00,,,1.29,0.000000,,2013-03-25 02:43:00,
2013-03-24 22:52:00,45.0,37.0,-100.00,West,261,4.0,20.0,72,0.00,,,1.29,0.000000,,2013-03-25 02:52:00,
2013-03-24 23:03:00,45.0,37.0,-100.00,West,261,4.0,20.0,72,0.00,,,1.29,0.000000,,2013-03-25 03:03:00,
2013-03-24 23:34:00,44.0,33.0,-100.00,West,276,7.0,17.0,66,0.00,,,1.29,0.000000,,2013-03-25 03:34:00,
2013-03-24 23:43:00,44.0,33.0,-100.00,West,276,7.0,17.0,66,0.00,,,1.29,0.000000,,2013-03-25 03:43:00,
2013-03-24 23:53:00,44.0,33.0,-100.00,West,276,7.0,17.0,66,0.00,,,1.29,0.000000,,2013-03-25 03:53:00,